Weather at Zelenikovo Airstrip SSA

Public forecast

Using degrees Celsius for public forecast. Weather courtesy of forecast.io.

Closest aviation weather report (METAR) to Zelenikovo Airstrip SSA

Report is more than 6 hours old.

Closest report is Graf Ignatievo Air Base, 17.3 nm (32.1 km) WSW.

2023/03/28 00:00 (retrieved 1 day ago)

LBPG 290000Z 26018KT 9999 BKN100 02/M06 Q1019

Closest aviation forecast (TAF) to Zelenikovo Airstrip SSA

Forecast is more than 12 hours old.

Closest forecast is Kuk√ęs International Airport, 208.4 nm (386.0 km) W.

2023/03/28 12:00 Ammendment (retrieved 13 hours ago)

TAF AMD LAKU 281615Z 2812/2912 CNL